createdAt,value
2018-06-11T00:01:27.612Z,18.62
2018-06-11T00:04:00.966Z,18.58
2018-06-11T00:06:34.348Z,18.54
2018-06-11T00:09:08.518Z,18.48
2018-06-11T00:11:41.896Z,18.42
2018-06-11T00:14:15.292Z,18.39
2018-06-11T00:16:48.750Z,18.37
2018-06-11T00:19:22.132Z,18.32
2018-06-11T00:21:55.528Z,18.26
2018-06-11T00:24:28.918Z,18.24
2018-06-11T00:27:02.306Z,18.24
2018-06-11T00:29:35.671Z,18.21
2018-06-11T00:32:09.058Z,18.18
2018-06-11T00:34:42.424Z,18.13
2018-06-11T00:37:15.800Z,18.07
2018-06-11T00:39:49.177Z,18.04
2018-06-11T00:42:22.563Z,18.00
2018-06-11T00:44:55.944Z,17.96
2018-06-11T00:47:29.319Z,17.95
2018-06-11T00:50:02.700Z,17.95
2018-06-11T00:52:36.087Z,17.93
2018-06-11T00:55:09.453Z,17.88
2018-06-11T00:57:42.837Z,17.92
2018-06-11T01:00:16.225Z,17.89
2018-06-11T01:02:49.648Z,17.88
2018-06-11T01:05:23.015Z,17.84
2018-06-11T01:07:56.387Z,17.80
2018-06-11T01:10:29.744Z,17.78
2018-06-11T01:13:03.197Z,17.78
2018-06-11T01:15:36.583Z,17.75
2018-06-11T01:18:09.967Z,17.75
2018-06-11T01:20:43.346Z,17.76
2018-06-11T01:23:16.732Z,17.75
2018-06-11T01:25:50.111Z,17.73
2018-06-11T01:28:23.504Z,17.69
2018-06-11T01:30:56.913Z,17.67
2018-06-11T01:33:30.314Z,17.65
2018-06-11T01:36:03.684Z,17.62
2018-06-11T01:38:37.063Z,17.60
2018-06-11T01:41:10.416Z,17.58
2018-06-11T01:43:43.799Z,17.52
2018-06-11T01:46:17.169Z,17.49
2018-06-11T01:48:50.567Z,17.44
2018-06-11T01:51:23.930Z,17.39
2018-06-11T01:53:57.328Z,17.32
2018-06-11T01:56:30.714Z,17.28
2018-06-11T01:59:04.125Z,17.23
2018-06-11T02:01:37.502Z,17.17
2018-06-11T02:04:10.892Z,17.16
2018-06-11T02:06:44.258Z,17.25
2018-06-11T02:09:17.637Z,17.25
2018-06-11T02:11:50.975Z,17.25
2018-06-11T02:14:24.396Z,17.21
2018-06-11T02:16:57.768Z,17.16
2018-06-11T02:19:31.148Z,17.11
2018-06-11T02:22:04.565Z,17.11
2018-06-11T02:24:37.956Z,17.06
2018-06-11T02:27:11.324Z,17.00
2018-06-11T02:29:44.720Z,16.93
2018-06-11T02:32:18.092Z,16.84
2018-06-11T02:34:51.499Z,16.81
2018-06-11T02:37:24.849Z,16.76
2018-06-11T02:39:58.247Z,16.70
2018-06-11T02:42:31.637Z,16.77
2018-06-11T02:45:05.074Z,16.76
2018-06-11T02:47:38.465Z,16.68
2018-06-11T02:50:11.840Z,16.64
2018-06-11T02:52:45.251Z,16.60
2018-06-11T02:55:18.651Z,16.55
2018-06-11T02:57:52.065Z,16.53
2018-06-11T03:00:25.438Z,16.46
2018-06-11T03:02:58.812Z,16.38
2018-06-11T03:05:32.171Z,16.53
2018-06-11T03:08:05.562Z,16.57
2018-06-11T03:10:38.929Z,16.53
2018-06-11T03:13:12.333Z,16.50
2018-06-11T03:15:45.716Z,16.36
2018-06-11T03:18:19.753Z,16.26
2018-06-11T03:20:53.132Z,16.19
2018-06-11T03:23:26.512Z,16.16
2018-06-11T03:25:59.903Z,16.11
2018-06-11T03:28:33.296Z,16.25
2018-06-11T03:31:06.775Z,16.22
2018-06-11T03:33:40.164Z,16.22
2018-06-11T03:36:13.543Z,16.25
2018-06-11T03:38:46.968Z,16.22
2018-06-11T03:41:20.335Z,16.18
2018-06-11T03:43:53.726Z,16.14
2018-06-11T03:46:27.104Z,16.05
2018-06-11T03:49:00.488Z,16.03
2018-06-11T03:51:33.837Z,16.03
2018-06-11T03:54:07.240Z,16.06
2018-06-11T03:56:40.601Z,16.11
2018-06-11T03:59:13.992Z,16.15
2018-06-11T04:01:47.389Z,16.17
2018-06-11T04:04:20.912Z,16.18
2018-06-11T04:06:54.336Z,16.21
2018-06-11T04:09:27.768Z,16.25
2018-06-11T04:12:01.148Z,16.30
2018-06-11T04:14:34.591Z,16.36
2018-06-11T04:17:07.979Z,16.44
2018-06-11T04:19:41.385Z,16.46
2018-06-11T04:22:14.810Z,16.48
2018-06-11T04:24:48.283Z,16.46
2018-06-11T04:27:21.696Z,16.48
2018-06-11T04:29:55.147Z,16.55
2018-06-11T04:32:28.630Z,16.56
2018-06-11T04:35:02.209Z,16.53
2018-06-11T04:37:35.621Z,16.50
2018-06-11T04:40:09.076Z,16.68
2018-06-11T04:42:42.493Z,16.76
2018-06-11T04:45:15.939Z,16.79
2018-06-11T04:47:49.384Z,16.83
2018-06-11T04:50:22.830Z,16.88
2018-06-11T04:52:56.230Z,16.93
2018-06-11T04:55:29.686Z,16.99
2018-06-11T04:58:03.089Z,17.03
2018-06-11T05:00:36.555Z,17.06
2018-06-11T05:03:09.985Z,17.04
2018-06-11T05:05:43.411Z,16.96
2018-06-11T05:08:16.826Z,16.96
2018-06-11T05:10:50.268Z,16.99
2018-06-11T05:13:23.670Z,16.94
2018-06-11T05:15:57.143Z,17.14
2018-06-11T05:18:30.581Z,17.23
2018-06-11T05:21:04.821Z,17.32
2018-06-11T05:23:38.230Z,17.37
2018-06-11T05:26:11.651Z,17.43
2018-06-11T05:28:45.122Z,17.47
2018-06-11T05:31:18.515Z,17.58
2018-06-11T05:33:51.896Z,17.59
2018-06-11T05:36:25.314Z,17.60
2018-06-11T05:38:58.714Z,17.61
2018-06-11T05:41:32.122Z,17.63
2018-06-11T05:44:05.556Z,17.71
2018-06-11T05:46:38.960Z,17.76
2018-06-11T05:49:12.353Z,17.80
2018-06-11T05:51:45.751Z,17.84
2018-06-11T05:54:19.388Z,17.72
2018-06-11T05:56:52.768Z,17.78
2018-06-11T05:59:26.182Z,17.80
2018-06-11T06:01:59.576Z,17.86
2018-06-11T06:04:32.968Z,17.83
2018-06-11T06:07:06.365Z,17.95
2018-06-11T06:09:39.756Z,18.04
2018-06-11T06:12:13.169Z,18.08
2018-06-11T06:14:46.627Z,18.15
2018-06-11T06:17:20.069Z,18.20
2018-06-11T06:19:53.522Z,18.25
2018-06-11T06:22:26.943Z,18.29
2018-06-11T06:25:00.390Z,18.28
2018-06-11T06:27:33.773Z,18.36
2018-06-11T06:30:07.180Z,18.41
2018-06-11T06:32:40.573Z,18.51
2018-06-11T06:35:13.951Z,18.64
2018-06-11T06:37:47.348Z,18.68
2018-06-11T06:40:20.723Z,18.80
2018-06-11T06:42:54.114Z,18.88
2018-06-11T06:45:27.520Z,18.91
2018-06-11T06:48:00.880Z,18.96
2018-06-11T06:50:34.260Z,19.06
2018-06-11T06:53:07.659Z,19.15
2018-06-11T06:55:41.088Z,19.22
2018-06-11T06:58:14.468Z,19.30
2018-06-11T07:00:47.915Z,19.40
2018-06-11T07:03:21.324Z,19.41
2018-06-11T07:05:54.773Z,19.48
2018-06-11T07:08:28.221Z,19.51
2018-06-11T07:11:01.685Z,19.47
2018-06-11T07:13:35.127Z,19.45
2018-06-11T07:16:09.590Z,19.52
2018-06-11T07:18:43.872Z,19.59
2018-06-11T07:21:17.826Z,19.68
2018-06-11T07:23:51.750Z,19.78
2018-06-11T07:26:25.407Z,19.97
2018-06-11T07:28:59.033Z,20.29
2018-06-11T07:31:32.486Z,20.39
2018-06-11T07:34:06.049Z,20.39
2018-06-11T07:36:39.564Z,20.39
2018-06-11T07:39:13.020Z,20.33
2018-06-11T07:41:46.509Z,20.31
2018-06-11T07:44:20.031Z,20.24
2018-06-11T07:46:53.488Z,20.06
2018-06-11T07:49:26.884Z,20.04
2018-06-11T07:52:00.303Z,20.29
2018-06-11T07:54:33.677Z,20.67
2018-06-11T07:57:07.096Z,20.87
2018-06-11T07:59:40.484Z,21.22
2018-06-11T08:02:13.909Z,21.37
2018-06-11T08:04:47.288Z,21.37
2018-06-11T08:07:20.676Z,21.28
2018-06-11T08:09:54.052Z,21.43
2018-06-11T08:12:27.483Z,21.62
2018-06-11T08:15:00.916Z,21.72
2018-06-11T08:17:34.355Z,21.69
2018-06-11T08:20:07.764Z,21.57
2018-06-11T08:22:41.147Z,21.64
2018-06-11T08:25:14.549Z,21.87
2018-06-11T08:27:47.999Z,22.21
2018-06-11T08:30:21.385Z,22.45
2018-06-11T08:32:54.764Z,22.62
2018-06-11T08:35:28.213Z,22.86
2018-06-11T08:38:01.636Z,23.25
2018-06-11T08:40:34.996Z,23.50
2018-06-11T08:43:08.420Z,23.68
2018-06-11T08:45:41.791Z,23.49
2018-06-11T08:48:15.337Z,23.41
2018-06-11T08:50:48.781Z,23.52
2018-06-11T08:53:22.183Z,23.64
2018-06-11T08:55:55.564Z,23.78
2018-06-11T08:58:28.960Z,23.93
2018-06-11T09:01:02.370Z,23.97
2018-06-11T09:03:35.782Z,24.03
2018-06-11T09:06:09.161Z,24.01
2018-06-11T09:08:42.545Z,24.14
2018-06-11T09:11:15.924Z,24.01
2018-06-11T09:13:49.389Z,23.99
2018-06-11T09:16:22.777Z,24.13
2018-06-11T09:18:56.179Z,24.05
2018-06-11T09:21:29.629Z,24.13
2018-06-11T09:24:03.024Z,24.09
2018-06-11T09:26:36.463Z,23.91
2018-06-11T09:29:09.817Z,23.97
2018-06-11T09:31:43.201Z,23.96
2018-06-11T09:34:16.564Z,24.04
2018-06-11T09:36:49.971Z,24.17
2018-06-11T09:39:23.373Z,24.24
2018-06-11T09:41:56.755Z,24.18
2018-06-11T09:44:30.121Z,24.17
2018-06-11T09:47:03.538Z,24.22
2018-06-11T09:49:36.942Z,24.34
2018-06-11T09:52:10.329Z,24.30
2018-06-11T09:54:43.730Z,24.32
2018-06-11T09:57:17.100Z,24.58
2018-06-11T09:59:50.474Z,24.59
2018-06-11T10:02:23.869Z,24.38
2018-06-11T10:04:57.246Z,24.01
2018-06-11T10:07:30.624Z,23.91
2018-06-11T10:10:04.024Z,24.22
2018-06-11T10:12:37.459Z,24.55
2018-06-11T10:15:10.884Z,24.40
2018-06-11T10:17:44.287Z,24.22
2018-06-11T10:20:17.646Z,23.89
2018-06-11T10:22:51.043Z,23.88
2018-06-11T10:25:24.401Z,24.09
2018-06-11T10:27:57.880Z,24.27
2018-06-11T10:30:31.228Z,24.41
2018-06-11T10:33:04.630Z,24.51
2018-06-11T10:35:37.989Z,24.70
2018-06-11T10:38:11.348Z,24.85
2018-06-11T10:40:44.710Z,24.77
2018-06-11T10:43:18.105Z,24.54
2018-06-11T10:45:51.504Z,24.40
2018-06-11T10:48:24.880Z,24.69
2018-06-11T10:50:58.324Z,25.02
2018-06-11T10:53:31.702Z,25.18
2018-06-11T10:56:05.159Z,25.18
2018-06-11T10:58:38.564Z,25.26
2018-06-11T11:01:11.925Z,25.41
2018-06-11T11:03:45.312Z,25.53
2018-06-11T11:06:18.741Z,25.37
2018-06-11T11:08:52.131Z,25.27
2018-06-11T11:11:25.520Z,25.47
2018-06-11T11:13:58.912Z,25.45
2018-06-11T11:16:32.318Z,25.52
2018-06-11T11:19:05.783Z,25.86
2018-06-11T11:21:39.133Z,25.87
2018-06-11T11:24:12.521Z,26.09
2018-06-11T11:26:45.873Z,26.16
2018-06-11T11:29:19.269Z,26.26
2018-06-11T11:31:52.644Z,26.26
2018-06-11T11:34:26.066Z,26.34
2018-06-11T11:36:59.438Z,26.34
2018-06-11T11:39:32.879Z,26.38
2018-06-11T11:42:06.321Z,26.34
2018-06-11T11:44:43.235Z,26.17
2018-06-11T11:47:20.974Z,26.11
2018-06-11T11:49:54.435Z,26.03
2018-06-11T11:52:27.882Z,26.03
2018-06-11T11:55:01.348Z,25.99
2018-06-11T11:57:34.742Z,26.11
2018-06-11T12:00:08.498Z,26.23
2018-06-11T12:02:42.220Z,26.26
2018-06-11T12:05:15.884Z,26.30
2018-06-11T12:07:49.281Z,26.34
2018-06-11T12:10:22.702Z,26.47
2018-06-11T12:12:56.105Z,26.68
2018-06-11T12:15:29.777Z,26.70
2018-06-11T12:18:03.135Z,26.62
2018-06-11T12:20:36.522Z,26.41
2018-06-11T12:23:09.902Z,26.28
2018-06-11T12:25:43.292Z,26.18
2018-06-11T12:28:16.672Z,26.16
2018-06-11T12:30:50.090Z,26.14
2018-06-11T12:33:23.441Z,26.06
2018-06-11T12:35:56.849Z,26.10
2018-06-11T12:38:30.235Z,26.25
2018-06-11T12:41:03.601Z,26.45
2018-06-11T12:43:36.983Z,26.55
2018-06-11T12:46:10.378Z,26.52
2018-06-11T12:48:43.752Z,26.52
2018-06-11T12:51:17.110Z,26.53
2018-06-11T12:53:50.506Z,26.47
2018-06-11T12:56:23.942Z,26.38
2018-06-11T12:58:57.336Z,26.37
2018-06-11T13:01:30.754Z,26.31
2018-06-11T13:04:04.192Z,26.03
2018-06-11T13:06:37.603Z,26.23
2018-06-11T13:09:10.995Z,26.33
2018-06-11T13:11:44.382Z,26.38
2018-06-11T13:14:18.650Z,26.28
2018-06-11T13:16:52.018Z,26.22
2018-06-11T13:19:25.446Z,26.15
2018-06-11T13:21:58.825Z,26.22
2018-06-11T13:24:32.200Z,26.36
2018-06-11T13:27:05.600Z,26.37
2018-06-11T13:29:38.992Z,26.35
2018-06-11T13:32:12.581Z,26.40
2018-06-11T13:34:46.120Z,26.64
2018-06-11T13:37:19.671Z,26.77
2018-06-11T13:39:53.210Z,26.88
2018-06-11T13:42:26.630Z,27.15
2018-06-11T13:45:00.037Z,27.82
2018-06-11T13:47:33.443Z,28.04
2018-06-11T13:50:06.887Z,28.24
2018-06-11T13:52:40.248Z,28.62
2018-06-11T13:55:13.682Z,28.10
2018-06-11T13:57:47.064Z,27.65
2018-06-11T14:00:20.485Z,27.39
2018-06-11T14:02:53.856Z,27.20
2018-06-11T14:05:27.243Z,27.13
2018-06-11T14:08:00.644Z,27.14
2018-06-11T14:10:34.059Z,27.12
2018-06-11T14:13:07.445Z,27.06
2018-06-11T14:15:40.884Z,26.98
2018-06-11T14:18:14.256Z,26.95
2018-06-11T14:20:48.891Z,26.95
2018-06-11T14:23:23.528Z,26.87
2018-06-11T14:25:58.267Z,26.79
2018-06-11T14:28:32.844Z,26.79
2018-06-11T14:31:07.546Z,26.74
2018-06-11T14:33:42.173Z,26.72
2018-06-11T14:36:16.973Z,26.71
2018-06-11T14:38:51.532Z,26.67
2018-06-11T14:41:26.182Z,26.70
2018-06-11T14:44:00.826Z,26.74
2018-06-11T14:46:35.522Z,26.65
2018-06-11T14:49:08.935Z,26.62
2018-06-11T14:51:42.315Z,26.62
2018-06-11T14:54:15.672Z,26.55
2018-06-11T14:56:49.295Z,26.53
2018-06-11T14:59:22.701Z,26.37
2018-06-11T15:01:56.091Z,26.27
2018-06-11T15:04:29.455Z,26.25
2018-06-11T15:07:02.857Z,26.22
2018-06-11T15:09:36.239Z,26.22
2018-06-11T15:12:09.652Z,26.21
2018-06-11T15:14:43.130Z,26.13
2018-06-11T15:17:16.531Z,26.16
2018-06-11T15:19:49.926Z,26.14
2018-06-11T15:22:23.319Z,26.20
2018-06-11T15:24:57.080Z,26.21
2018-06-11T15:27:30.872Z,26.22
2018-06-11T15:30:04.377Z,26.27
2018-06-11T15:32:37.956Z,26.23
2018-06-11T15:35:11.323Z,26.18
2018-06-11T15:37:44.704Z,26.15
2018-06-11T15:40:18.111Z,26.11
2018-06-11T15:42:51.500Z,26.08
2018-06-11T15:45:25.589Z,26.09
2018-06-11T15:47:59.879Z,26.08
2018-06-11T15:50:34.176Z,26.06
2018-06-11T15:53:08.384Z,25.98
2018-06-11T15:55:42.443Z,25.93
2018-06-11T15:58:16.519Z,25.92
2018-06-11T16:00:50.679Z,25.93
2018-06-11T16:03:24.754Z,25.94
2018-06-11T16:05:58.811Z,25.93
2018-06-11T16:08:32.812Z,25.89
2018-06-11T16:11:07.046Z,25.89
2018-06-11T16:13:40.451Z,25.90
2018-06-11T16:16:13.836Z,25.94
2018-06-11T16:18:47.203Z,26.02
2018-06-11T16:21:20.584Z,26.09
2018-06-11T16:23:53.929Z,26.02
2018-06-11T16:26:27.364Z,26.02
2018-06-11T16:29:01.454Z,26.07
2018-06-11T16:31:36.997Z,26.12
2018-06-11T16:34:11.808Z,26.26
2018-06-11T16:36:46.520Z,26.31
2018-06-11T16:39:21.966Z,26.27
2018-06-11T16:41:56.657Z,26.22
2018-06-11T16:44:32.024Z,26.26
2018-06-11T16:47:06.715Z,26.41
2018-06-11T16:49:41.265Z,26.36
2018-06-11T16:52:15.883Z,26.22
2018-06-11T16:54:52.294Z,26.25
2018-06-11T16:57:27.074Z,26.33
2018-06-11T17:00:01.455Z,26.36
2018-06-11T17:02:34.895Z,26.18
2018-06-11T17:05:08.351Z,26.01
2018-06-11T17:07:41.739Z,25.84
2018-06-11T17:13:10.620Z,25.67
2018-06-11T17:15:44.028Z,25.59
2018-06-11T17:18:17.487Z,25.51
2018-06-11T17:20:51.890Z,25.40
2018-06-11T17:23:25.309Z,25.36
2018-06-11T17:25:58.800Z,25.32
2018-06-11T17:28:32.245Z,25.19
2018-06-11T17:31:05.981Z,25.10
2018-06-11T17:33:39.512Z,25.04
2018-06-11T17:36:12.958Z,24.93
2018-06-11T17:38:46.384Z,24.82
2018-06-11T17:41:19.865Z,24.65
2018-06-11T17:43:53.332Z,24.57
2018-06-11T17:46:31.768Z,24.50
2018-06-11T17:49:05.257Z,24.42
2018-06-11T17:51:38.734Z,24.32
2018-06-11T17:54:12.197Z,24.22
2018-06-11T17:56:45.624Z,24.14
2018-06-11T17:59:19.161Z,24.15
2018-06-11T18:01:52.563Z,24.13
2018-06-11T18:04:26.056Z,24.06
2018-06-11T18:06:59.424Z,24.00
2018-06-11T18:09:33.452Z,23.97
2018-06-11T18:12:07.533Z,23.97
2018-06-11T18:14:41.010Z,23.89
2018-06-11T18:17:14.415Z,23.85
2018-06-11T18:19:47.875Z,23.78
2018-06-11T18:22:21.299Z,23.71
2018-06-11T18:24:54.681Z,23.64
2018-06-11T18:27:28.158Z,23.57
2018-06-11T18:30:01.573Z,23.50
2018-06-11T18:32:34.990Z,23.38
2018-06-11T18:35:08.407Z,23.22
2018-06-11T18:37:41.873Z,23.13
2018-06-11T18:40:15.265Z,23.03
2018-06-11T18:42:48.717Z,22.93
2018-06-11T18:45:22.092Z,22.84
2018-06-11T18:47:55.492Z,22.77
2018-06-11T18:50:28.990Z,22.74
2018-06-11T18:53:02.402Z,22.66
2018-06-11T18:55:35.837Z,22.55
2018-06-11T18:58:09.293Z,22.46
2018-06-11T19:00:42.699Z,22.39
2018-06-11T19:03:21.643Z,22.27
2018-06-11T19:05:55.056Z,22.22
2018-06-11T19:08:28.496Z,22.15
2018-06-11T19:11:01.899Z,22.06
2018-06-11T19:13:35.344Z,21.95
2018-06-11T19:16:08.740Z,21.90
2018-06-11T19:18:42.180Z,21.87
2018-06-11T19:21:15.628Z,21.80
2018-06-11T19:23:49.076Z,21.71
2018-06-11T19:26:22.582Z,21.65
2018-06-11T19:28:56.043Z,21.58
2018-06-11T19:31:29.439Z,21.52
2018-06-11T19:34:02.871Z,21.41
2018-06-11T19:36:36.282Z,21.34
2018-06-11T19:39:09.703Z,21.26
2018-06-11T19:41:43.129Z,21.19
2018-06-11T19:44:16.552Z,21.13
2018-06-11T19:46:50.089Z,21.05
2018-06-11T19:49:23.815Z,20.97
2018-06-11T19:51:57.339Z,20.87
2018-06-11T19:54:30.792Z,20.75
2018-06-11T19:57:12.028Z,20.61
2018-06-11T19:59:45.446Z,20.57
2018-06-11T20:02:18.913Z,20.52
2018-06-11T20:04:52.349Z,20.45
2018-06-11T20:07:25.754Z,20.39
2018-06-11T20:09:59.199Z,20.36
2018-06-11T20:12:32.597Z,20.32
2018-06-11T20:15:06.056Z,20.24
2018-06-11T20:17:39.421Z,20.16
2018-06-11T20:20:12.800Z,19.93
2018-06-11T20:22:46.177Z,19.85
2018-06-11T20:25:19.661Z,19.80
2018-06-11T20:27:53.043Z,19.76
2018-06-11T20:30:29.356Z,19.67
2018-06-11T20:33:05.894Z,19.61
2018-06-11T20:35:39.396Z,19.54
2018-06-11T20:38:12.740Z,19.39
2018-06-11T20:40:48.649Z,19.36
2018-06-11T20:43:22.089Z,19.33
2018-06-11T20:45:55.478Z,19.29
2018-06-11T20:48:32.254Z,19.25
2018-06-11T20:51:12.290Z,19.21
2018-06-11T20:53:48.129Z,19.05
2018-06-11T20:56:23.576Z,18.99
2018-06-11T20:59:02.158Z,18.93
2018-06-11T21:01:41.881Z,18.86
2018-06-11T21:04:19.776Z,18.82
2018-06-11T21:06:57.145Z,18.78
2018-06-11T21:09:33.431Z,18.76
2018-06-11T21:14:58.945Z,18.65
2018-06-11T21:17:38.886Z,18.59
2018-06-11T21:20:17.117Z,18.50
2018-06-11T21:22:57.644Z,18.42
2018-06-11T21:25:34.652Z,18.36
2018-06-11T21:28:10.186Z,18.29
2018-06-11T21:30:49.406Z,18.23
2018-06-11T21:33:26.700Z,18.16
2018-06-11T21:36:04.778Z,18.10
2018-06-11T21:38:39.933Z,18.02
2018-06-11T21:41:18.412Z,17.93
2018-06-11T21:43:56.401Z,17.86
2018-06-11T21:46:32.737Z,17.78
2018-06-11T21:49:08.028Z,17.71
2018-06-11T21:51:45.042Z,17.62
2018-06-11T21:54:21.172Z,17.57
2018-06-11T21:56:59.432Z,17.53
2018-06-11T21:59:35.676Z,17.49
2018-06-11T22:02:10.860Z,17.45
2018-06-11T22:04:50.528Z,17.39
2018-06-11T22:07:26.440Z,17.32
2018-06-11T22:10:01.521Z,17.24
2018-06-11T22:12:37.810Z,17.14
2018-06-11T22:15:14.760Z,17.12
2018-06-11T22:17:50.100Z,17.07
2018-06-11T22:20:26.626Z,17.02
2018-06-11T22:23:03.033Z,17.00
2018-06-11T22:25:42.373Z,16.96
2018-06-11T22:28:20.686Z,16.91
2018-06-11T22:30:57.752Z,16.85
2018-06-11T22:33:39.411Z,16.79
2018-06-11T22:36:15.071Z,16.74
2018-06-11T22:38:52.786Z,16.66
2018-06-11T22:41:29.281Z,16.60
2018-06-11T22:44:06.462Z,16.51
2018-06-11T22:46:43.459Z,16.42
2018-06-11T22:49:21.337Z,16.39
2018-06-11T22:51:59.618Z,16.34
2018-06-11T22:54:34.762Z,16.30
2018-06-11T22:57:13.274Z,16.27
2018-06-11T22:59:51.033Z,16.20
2018-06-11T23:02:27.177Z,16.16
2018-06-11T23:05:04.217Z,16.11
2018-06-11T23:07:40.599Z,16.07
2018-06-11T23:10:18.569Z,16.01
2018-06-11T23:12:55.108Z,15.94
2018-06-11T23:15:30.472Z,15.88
2018-06-11T23:18:06.590Z,15.83
2018-06-11T23:20:42.422Z,15.79
2018-06-11T23:23:19.589Z,15.78
2018-06-11T23:25:55.395Z,15.73
2018-06-11T23:28:30.933Z,15.67
2018-06-11T23:31:06.920Z,15.62
2018-06-11T23:33:43.114Z,15.58
2018-06-11T23:36:20.272Z,15.51
2018-06-11T23:38:55.215Z,15.45
2018-06-11T23:41:30.129Z,15.43
2018-06-11T23:44:07.477Z,15.43
2018-06-11T23:46:44.435Z,15.42
2018-06-11T23:49:19.281Z,15.40
2018-06-11T23:51:54.546Z,15.34
2018-06-11T23:54:35.347Z,15.46
2018-06-11T23:57:14.976Z,15.51
2018-06-11T23:59:50.904Z,15.50
